Terminal Aerodrome Forecast
Issued by NWS Cleveland, OH

Home | Current Version | Previous Version | Graphics & Text | Print | Product List | Glossary On
Versions: 1 2 3 4 5 6 7 8 9 10 11 12 13 14
000
FTUS41 KCLE 241700
TAFERI
TAF
KERI 241735Z 2418/2518 30012G18KT P6SM FEW020
     FM250400 36004KT P6SM BKN200
     FM251200 12004KT P6SM SCT040 OVC120=

USA.gov is the U.S. government's official web portal to all federal, state and local government web resources and services.